Friday, June 22, 2018, 3:27 AM EDT
Back to Local

KBML, Berlin Municipal Airport

Location: Milan, NH, United States Lat: 44.583
Local Time: 3:27 AM EDT ( 7:27 GMT) Lon: -71.183
Time Zone: US/Eastern Elev: 1158 ft

Show me the last for .
Show Decoded

2018-06-22 02:52 METAR KBML 220652Z AUTO 00000KT 10SM FEW001 02/01 A3002 RMK AO2 SLP168 T00170011
                 $ =
2018-06-22 02:39 METAR KBML 220639Z AUTO 00000KT 10SM FEW001 03/02 A3002 RMK AO2 T00280017 $ =
2018-06-22 02:16 METAR KBML 220616Z AUTO 00000KT 10SM BKN001 02/02 A3002 RMK AO2 T00220017 $ =
2018-06-22 02:06 METAR KBML 220606Z AUTO 00000KT 10SM SCT001 02/02 A3002 RMK AO2 T00220017 $ =
2018-06-22 01:52 METAR KBML 220552Z AUTO 00000KT 10SM CLR 03/02 A3002 RMK AO2 SLP169 T00330022
                 10172 20022 51010 $ =
2018-06-22 00:52 METAR KBML 220452Z AUTO 00000KT 10SM CLR 04/03 A3002 RMK AO2 SLP168 T00390033
                 402280039 $ =
2018-06-21 23:52 METAR KBML 220352Z AUTO 00000KT 10SM CLR 06/04 A3001 RMK AO2 SLP164 T00560044 $
                 =
2018-06-21 22:52 METAR KBML 220252Z AUTO 15004KT 10SM CLR 06/05 A2999 RMK AO2 SLP158 T00610050
                 53027 $ =
2018-06-21 21:52 METAR KBML 220152Z AUTO 00000KT 10SM CLR 09/06 A2996 RMK AO2 SLP148 T00940061 $
                 =
2018-06-21 20:52 METAR KBML 220052Z AUTO 36004KT 10SM CLR 13/06 A2993 RMK AO2 SLP136 T01330056 $
                 =
2018-06-21 19:52 METAR KBML 212352Z AUTO 33004KT 10SM CLR 17/04 A2991 RMK AO2 SLP126 T01720039
                 10228 20172 53018 $ =
2018-06-21 18:52 METAR KBML 212252Z AUTO 33005KT 10SM CLR 19/02 A2989 RMK AO2 SLP119 T01940022 $
                 =
2018-06-21 17:52 METAR KBML 212152Z AUTO 32007KT 10SM CLR 21/03 A2987 RMK AO2 SLP112 T02060028 $
                 =
2018-06-21 16:52 METAR KBML 212052Z AUTO VRB04KT 10SM CLR 22/02 A2985 RMK AO2 SLP106 T02170022
                 51006 $ =
2018-06-21 15:52 METAR KBML 211952Z AUTO 35012KT 10SM CLR 22/01 A2985 RMK AO2 SLP104 T02170011 $
                 =
2018-06-21 14:52 METAR KBML 211852Z AUTO 35011G18KT 10SM CLR 22/03 A2984 RMK AO2 SLP101 T02220033
                 =
2018-06-21 13:52 METAR KBML 211752Z AUTO 34010KT 10SM CLR 22/04 A2983 RMK AO2 SLP099 T02220039
                 10228 20178 53001 =
2018-06-21 12:52 METAR KBML 211652Z AUTO 35010G14KT 10SM CLR 22/06 A2983 RMK AO2 SLP100 T02220061
                 =
2018-06-21 11:52 METAR KBML 211552Z AUTO 34008KT 10SM CLR 21/06 A2983 RMK AO2 SLP099 T02110056 =
2018-06-21 10:52 METAR KBML 211452Z AUTO 34012G17KT 10SM CLR 21/06 A2983 RMK AO2 SLP100 T02110061
                 51006 =
2018-06-21 09:52 METAR KBML 211352Z AUTO VRB06KT 10SM CLR 20/08 A2983 RMK AO2 SLP098 T02000078 =
2018-06-21 08:52 METAR KBML 211252Z AUTO VRB05KT 10SM CLR 19/07 A2982 RMK AO2 SLP098 T01890072 =
2018-06-21 07:52 METAR KBML 211152Z AUTO 33005KT 10SM CLR 18/09 A2981 RMK AO2 SLP091 T01780089
                 10189 20139 51017 =
2018-06-21 06:52 METAR KBML 211052Z AUTO 34005KT 10SM OVC043 16/11 A2980 RMK AO2 SLP088 T01610106
                 =
2018-06-21 05:52 METAR KBML 210952Z AUTO 00000KT 10SM FEW032 BKN041 16/13 A2978 RMK AO2 SLP081
                 T01560128 =
2018-06-21 04:52 METAR KBML 210852Z AUTO 00000KT 10SM OVC035 17/13 A2976 RMK AO2 SLP073 T01720128
                 53003 =
2018-06-21 03:52 METAR KBML 210752Z AUTO VRB03KT 10SM OVC038 18/13 A2975 RMK AO2 SLP068 T01780133
                 =

Support USWX by starting your Amazon purchase here.